createdAt,value
2023-04-03T00:00:02.497Z,64.39
2023-04-03T00:02:56.584Z,64.44
2023-04-03T00:05:28.650Z,64.38
2023-04-03T00:07:59.255Z,64.27
2023-04-03T00:10:29.732Z,64.37
2023-04-03T00:13:03.403Z,64.43
2023-04-03T00:15:35.906Z,64.53
2023-04-03T00:18:06.802Z,64.40
2023-04-03T00:20:40.075Z,64.50
2023-04-03T00:23:10.455Z,64.43
2023-04-03T00:25:41.425Z,64.27
2023-04-03T00:28:12.955Z,64.24
2023-04-03T00:30:43.350Z,64.27
2023-04-03T00:33:17.363Z,64.29
2023-04-03T00:35:50.585Z,64.23
2023-04-03T00:38:21.716Z,64.19
2023-04-03T00:40:53.242Z,64.01
2023-04-03T00:43:28.501Z,64.02
2023-04-03T00:46:00.973Z,64.08
2023-04-03T00:48:36.284Z,64.03
2023-04-03T00:51:10.054Z,64.09
2023-04-03T00:54:03.784Z,64.04
2023-04-03T00:56:41.093Z,63.98
2023-04-03T00:59:17.992Z,63.94
2023-04-03T01:01:49.554Z,63.96
2023-04-03T01:04:31.204Z,63.97
2023-04-03T01:07:11.489Z,63.88
2023-04-03T01:09:44.197Z,63.89
2023-04-03T01:12:30.038Z,63.87
2023-04-03T01:15:10.981Z,63.82
2023-04-03T01:17:50.792Z,63.90
2023-04-03T01:20:37.701Z,63.80
2023-04-03T01:23:11.034Z,63.78
2023-04-03T01:25:45.008Z,63.65
2023-04-03T01:28:30.921Z,63.65
2023-04-03T01:31:08.497Z,63.76
2023-04-03T01:33:40.743Z,63.80
2023-04-03T01:36:18.031Z,63.71
2023-04-03T01:38:51.327Z,63.76
2023-04-03T01:41:23.026Z,63.58
2023-04-03T01:43:57.717Z,63.63
2023-04-03T01:46:28.573Z,63.64
2023-04-03T01:48:58.884Z,63.68
2023-04-03T01:51:29.230Z,63.58
2023-04-03T01:54:05.692Z,63.64
2023-04-03T01:56:36.115Z,63.59
2023-04-03T01:59:06.373Z,63.51
2023-04-03T02:01:36.854Z,63.49
2023-04-03T02:04:07.865Z,63.51
2023-04-03T02:06:38.285Z,63.48
2023-04-03T02:09:10.264Z,63.56
2023-04-03T02:11:40.818Z,63.58
2023-04-03T02:14:11.137Z,63.57
2023-04-03T02:16:41.482Z,63.43
2023-04-03T02:19:12.022Z,63.47
2023-04-03T02:21:42.296Z,63.48
2023-04-03T02:24:12.369Z,63.50
2023-04-03T02:26:42.350Z,63.44
2023-04-03T02:29:15.310Z,63.48
2023-04-03T02:31:48.071Z,63.46
2023-04-03T02:34:21.572Z,63.43
2023-04-03T02:36:53.189Z,63.33
2023-04-03T02:39:26.129Z,63.40
2023-04-03T02:41:59.868Z,63.37
2023-04-03T02:44:32.677Z,63.42
2023-04-03T02:47:04.196Z,63.46
2023-04-03T02:49:34.462Z,63.48
2023-04-03T02:52:05.026Z,63.49
2023-04-03T02:54:43.192Z,63.44
2023-04-03T02:57:13.927Z,63.47
2023-04-03T02:59:47.116Z,63.40
2023-04-03T03:02:19.103Z,63.52
2023-04-03T03:04:51.974Z,63.41
2023-04-03T03:07:22.421Z,63.34
2023-04-03T03:09:52.676Z,63.41
2023-04-03T03:12:25.963Z,63.52
2023-04-03T03:15:01.570Z,63.50
2023-04-03T03:17:37.468Z,63.46
2023-04-03T03:20:09.471Z,63.43
2023-04-03T03:22:41.790Z,63.42
2023-04-03T03:25:12.292Z,63.40
2023-04-03T03:27:45.035Z,63.47
2023-04-03T03:30:15.399Z,63.41
2023-04-03T03:32:47.613Z,63.39
2023-04-03T03:35:18.837Z,63.44
2023-04-03T03:37:52.098Z,63.43
2023-04-03T03:40:26.811Z,63.41
2023-04-03T03:42:57.179Z,63.40
2023-04-03T03:45:27.827Z,63.44
2023-04-03T03:47:58.255Z,63.47
2023-04-03T03:50:29.854Z,63.54
2023-04-03T03:53:00.576Z,63.50
2023-04-03T03:55:31.265Z,63.58
2023-04-03T03:58:07.801Z,63.54
2023-04-03T04:00:39.604Z,63.56
2023-04-03T04:03:10.170Z,63.46
2023-04-03T04:05:42.842Z,63.42
2023-04-03T04:08:13.253Z,63.53
2023-04-03T04:10:43.726Z,63.49
2023-04-03T04:13:20.698Z,63.51
2023-04-03T04:15:51.033Z,63.47
2023-04-03T04:18:23.906Z,63.55
2023-04-03T04:20:57.145Z,63.53
2023-04-03T04:23:27.613Z,63.50
2023-04-03T04:25:58.542Z,63.47
2023-04-03T04:28:32.554Z,63.28
2023-04-03T04:31:03.715Z,63.36
2023-04-03T04:33:36.221Z,63.39
2023-04-03T04:36:10.683Z,63.50
2023-04-03T04:38:41.458Z,63.46
2023-04-03T04:41:14.948Z,63.41
2023-04-03T04:43:45.049Z,63.35
2023-04-03T04:46:15.324Z,63.39
2023-04-03T04:48:52.039Z,63.45
2023-04-03T04:51:22.903Z,63.44
2023-04-03T04:53:54.840Z,63.33
2023-04-03T04:56:29.733Z,63.37
2023-04-03T04:59:01.638Z,63.35
2023-04-03T05:01:32.344Z,63.36
2023-04-03T05:04:14.164Z,63.32
2023-04-03T05:06:44.896Z,63.21
2023-04-03T05:09:21.388Z,63.38
2023-04-03T05:11:52.344Z,63.32
2023-04-03T05:14:26.813Z,63.23
2023-04-03T05:16:59.034Z,63.41
2023-04-03T05:19:31.851Z,63.25
2023-04-03T05:22:02.526Z,63.32
2023-04-03T05:24:33.445Z,63.35
2023-04-03T05:27:06.177Z,63.32
2023-04-03T05:29:38.335Z,63.12
2023-04-03T05:32:09.128Z,63.23
2023-04-03T05:34:39.709Z,63.54
2023-04-03T05:37:10.751Z,63.43
2023-04-03T05:39:42.573Z,63.23
2023-04-03T05:42:16.611Z,63.20
2023-04-03T05:44:48.560Z,63.42
2023-04-03T05:47:20.987Z,63.47
2023-04-03T05:49:54.061Z,63.10
2023-04-03T05:52:30.802Z,63.19
2023-04-03T05:55:04.778Z,63.20
2023-04-03T05:57:37.389Z,62.88
2023-04-03T06:00:12.000Z,62.99
2023-04-03T06:02:45.648Z,62.95
2023-04-03T06:05:21.398Z,62.95
2023-04-03T06:07:54.111Z,63.15
2023-04-03T06:10:24.763Z,62.83
2023-04-03T06:12:55.226Z,62.99
2023-04-03T06:15:28.655Z,62.86
2023-04-03T06:18:02.198Z,62.89
2023-04-03T06:20:38.463Z,62.90
2023-04-03T06:23:09.180Z,62.96
2023-04-03T06:25:45.148Z,62.74
2023-04-03T06:28:18.006Z,62.66
2023-04-03T06:30:48.318Z,62.71
2023-04-03T06:33:18.796Z,62.78
2023-04-03T06:35:49.550Z,62.79
2023-04-03T06:38:20.249Z,62.70
2023-04-03T06:40:52.149Z,62.82
2023-04-03T06:43:26.445Z,62.83
2023-04-03T06:45:57.232Z,62.74
2023-04-03T06:48:27.738Z,62.80
2023-04-03T06:51:01.091Z,62.62
2023-04-03T06:53:31.622Z,62.42
2023-04-03T06:56:04.330Z,62.54
2023-04-03T06:58:35.165Z,62.50
2023-04-03T07:01:07.362Z,62.44
2023-04-03T07:03:38.381Z,62.32
2023-04-03T07:06:17.062Z,62.29
2023-04-03T07:08:49.623Z,62.44
2023-04-03T07:11:20.201Z,62.58
2023-04-03T07:13:51.154Z,62.39
2023-04-03T07:16:22.138Z,62.53
2023-04-03T07:18:52.916Z,62.38
2023-04-03T07:21:23.161Z,62.40
2023-04-03T07:23:53.797Z,62.33
2023-04-03T07:26:25.374Z,62.35
2023-04-03T07:28:55.923Z,62.14
2023-04-03T07:31:26.741Z,62.14
2023-04-03T07:33:59.178Z,62.23
2023-04-03T07:36:30.374Z,62.24
2023-04-03T07:39:01.747Z,62.16
2023-04-03T07:41:35.481Z,62.21
2023-04-03T07:44:07.413Z,62.26
2023-04-03T07:46:40.600Z,62.03
2023-04-03T07:49:19.469Z,62.03
2023-04-03T07:51:49.976Z,62.09
2023-04-03T07:54:22.731Z,62.23
2023-04-03T07:56:53.295Z,62.05
2023-04-03T07:59:24.692Z,61.96
2023-04-03T08:01:55.259Z,62.01
2023-04-03T08:04:26.469Z,61.85
2023-04-03T08:07:00.318Z,61.81
2023-04-03T08:09:30.864Z,61.57
2023-04-03T08:12:03.284Z,61.62
2023-04-03T08:14:35.786Z,61.43
2023-04-03T08:17:06.846Z,61.47
2023-04-03T08:19:43.190Z,61.45
2023-04-03T08:22:16.128Z,61.27
2023-04-03T08:24:58.664Z,61.49
2023-04-03T08:27:36.842Z,61.32
2023-04-03T08:30:10.419Z,61.18
2023-04-03T08:32:41.400Z,61.21
2023-04-03T08:35:12.569Z,61.46
2023-04-03T08:37:44.128Z,61.46
2023-04-03T08:40:19.135Z,61.81
2023-04-03T08:42:49.390Z,61.38
2023-04-03T08:45:28.454Z,61.28
2023-04-03T08:48:08.749Z,61.41
2023-04-03T08:50:44.564Z,60.86
2023-04-03T08:53:20.861Z,60.80
2023-04-03T08:55:53.579Z,60.96
2023-04-03T08:58:34.496Z,60.84
2023-04-03T09:01:38.954Z,60.85
2023-04-03T09:04:18.568Z,60.78
2023-04-03T09:07:10.285Z,60.51
2023-04-03T09:09:45.778Z,60.72
2023-04-03T09:12:25.394Z,61.02
2023-04-03T09:15:38.418Z,61.14
2023-04-03T09:18:37.384Z,60.84
2023-04-03T09:21:23.672Z,60.69
2023-04-03T09:24:02.700Z,60.55
2023-04-03T09:27:04.932Z,60.45
2023-04-03T09:29:44.878Z,60.24
2023-04-03T09:32:25.049Z,60.44
2023-04-03T09:35:09.654Z,60.21
2023-04-03T09:37:51.048Z,59.76
2023-04-03T09:40:41.216Z,59.87
2023-04-03T09:43:34.166Z,60.06
2023-04-03T09:46:40.959Z,60.27
2023-04-03T09:49:14.558Z,59.79
2023-04-03T09:51:45.792Z,59.96
2023-04-03T09:54:42.267Z,59.81
2023-04-03T09:57:15.935Z,59.47
2023-04-03T10:00:01.260Z,59.62
2023-04-03T10:02:41.891Z,59.38
2023-04-03T10:05:39.979Z,59.40
2023-04-03T10:08:18.021Z,59.61
2023-04-03T10:10:52.872Z,59.82
2023-04-03T10:13:24.059Z,59.71
2023-04-03T10:16:04.964Z,59.76
2023-04-03T10:18:38.936Z,59.79
2023-04-03T10:21:26.702Z,59.58
2023-04-03T10:24:12.692Z,59.19
2023-04-03T10:26:58.535Z,59.03
2023-04-03T10:30:14.231Z,59.13
2023-04-03T10:33:00.166Z,59.65
2023-04-03T10:35:36.551Z,59.32
2023-04-03T10:38:24.166Z,59.21
2023-04-03T10:41:16.419Z,58.70
2023-04-03T10:44:07.146Z,58.67
2023-04-03T10:47:05.459Z,59.61
2023-04-03T10:49:53.488Z,59.22
2023-04-03T10:52:30.076Z,59.16
2023-04-03T10:55:43.580Z,59.25
2023-04-03T10:58:43.831Z,58.95
2023-04-03T11:01:24.490Z,58.57
2023-04-03T11:03:58.893Z,58.54
2023-04-03T11:06:41.186Z,58.56
2023-04-03T11:09:43.148Z,59.03
2023-04-03T11:12:48.103Z,58.23
2023-04-03T11:15:22.244Z,58.39
2023-04-03T11:18:07.342Z,58.58
2023-04-03T11:20:41.385Z,58.26
2023-04-03T11:23:48.969Z,58.33
2023-04-03T11:26:23.578Z,57.83
2023-04-03T11:29:02.703Z,58.08
2023-04-03T11:31:59.624Z,58.63
2023-04-03T11:34:46.638Z,58.30
2023-04-03T11:37:22.189Z,58.39
2023-04-03T11:40:08.683Z,57.37
2023-04-03T11:42:45.225Z,57.22
2023-04-03T11:45:29.314Z,57.26
2023-04-03T11:48:20.838Z,57.22
2023-04-03T11:50:58.340Z,57.41
2023-04-03T11:53:41.885Z,57.51
2023-04-03T11:56:29.736Z,57.33
2023-04-03T11:59:13.572Z,57.33
2023-04-03T12:01:51.411Z,57.46
2023-04-03T12:04:27.152Z,57.03
2023-04-03T12:07:14.958Z,56.80
2023-04-03T12:09:45.739Z,56.98
2023-04-03T12:12:36.818Z,57.05
2023-04-03T12:15:45.525Z,57.00
2023-04-03T12:18:47.301Z,57.19
2023-04-03T12:21:34.933Z,56.76
2023-04-03T12:24:12.074Z,56.77
2023-04-03T12:27:01.629Z,56.79
2023-04-03T12:29:35.231Z,56.74
2023-04-03T12:32:35.786Z,56.62
2023-04-03T12:35:31.467Z,56.55
2023-04-03T12:38:39.925Z,56.67
2023-04-03T12:41:41.279Z,56.50
2023-04-03T12:44:29.150Z,56.19
2023-04-03T12:47:12.050Z,56.53
2023-04-03T12:49:51.465Z,56.55
2023-04-03T12:52:35.546Z,56.12
2023-04-03T12:55:11.555Z,56.27
2023-04-03T12:57:47.554Z,56.43
2023-04-03T13:00:24.573Z,56.20
2023-04-03T13:02:55.209Z,56.06
2023-04-03T13:05:30.240Z,55.94
2023-04-03T13:08:12.818Z,55.89
2023-04-03T13:10:54.764Z,55.91
2023-04-03T13:13:29.454Z,56.03
2023-04-03T13:16:01.086Z,56.04
2023-04-03T13:18:37.286Z,55.83
2023-04-03T13:21:21.096Z,55.81
2023-04-03T13:24:00.569Z,56.08
2023-04-03T13:26:35.829Z,55.76
2023-04-03T13:29:20.690Z,55.42
2023-04-03T13:32:01.796Z,55.32
2023-04-03T13:34:41.010Z,55.43
2023-04-03T13:37:33.575Z,55.55
2023-04-03T13:40:03.992Z,55.41
2023-04-03T13:42:42.088Z,55.27
2023-04-03T13:45:22.076Z,55.26
2023-04-03T13:47:56.165Z,55.15
2023-04-03T13:50:30.382Z,55.32
2023-04-03T13:53:18.524Z,55.46
2023-04-03T13:56:00.133Z,55.68
2023-04-03T13:58:34.283Z,55.42
2023-04-03T14:01:10.849Z,55.30
2023-04-03T14:03:47.041Z,55.34
2023-04-03T14:06:21.372Z,55.41
2023-04-03T14:08:58.933Z,55.42
2023-04-03T14:11:37.110Z,55.29
2023-04-03T14:14:24.335Z,55.24
2023-04-03T14:17:00.106Z,55.10
2023-04-03T14:19:36.779Z,55.00
2023-04-03T14:22:21.966Z,55.17
2023-04-03T14:24:53.372Z,55.23
2023-04-03T14:27:31.176Z,55.31
2023-04-03T14:30:04.516Z,54.98
2023-04-03T14:32:36.321Z,54.84
2023-04-03T14:35:09.268Z,54.79
2023-04-03T14:37:39.851Z,54.96
2023-04-03T14:40:11.992Z,55.09
2023-04-03T14:42:42.423Z,55.11
2023-04-03T14:45:19.773Z,55.15
2023-04-03T14:47:58.584Z,55.06
2023-04-03T14:50:29.950Z,54.94
2023-04-03T14:53:01.910Z,55.02
2023-04-03T14:55:33.359Z,55.04
2023-04-03T14:58:04.954Z,54.97
2023-04-03T15:00:37.343Z,54.84
2023-04-03T15:03:17.621Z,54.90
2023-04-03T15:05:52.445Z,54.76
2023-04-03T15:08:28.550Z,54.70
2023-04-03T15:10:59.587Z,54.77
2023-04-03T15:13:33.581Z,54.79
2023-04-03T15:16:04.999Z,54.73
2023-04-03T15:18:44.595Z,54.67
2023-04-03T15:21:17.175Z,54.63
2023-04-03T15:23:49.358Z,54.68
2023-04-03T15:26:21.151Z,54.67
2023-04-03T15:28:55.096Z,54.57
2023-04-03T15:31:27.839Z,54.65
2023-04-03T15:33:58.485Z,54.70
2023-04-03T15:36:34.164Z,54.71
2023-04-03T15:39:07.574Z,54.80
2023-04-03T15:41:40.608Z,54.61
2023-04-03T15:50:59.178Z,54.64
2023-04-03T15:53:32.098Z,54.59
2023-04-03T15:56:03.905Z,54.43
2023-04-03T15:58:34.483Z,54.43
2023-04-03T16:01:05.155Z,54.52
2023-04-03T16:03:45.257Z,54.55
2023-04-03T16:06:20.251Z,54.47
2023-04-03T16:08:53.817Z,54.42
2023-04-03T16:11:24.054Z,54.43
2023-04-03T16:13:55.799Z,54.60
2023-04-03T16:16:28.661Z,54.50
2023-04-03T16:19:00.925Z,54.76
2023-04-03T16:21:32.150Z,54.52
2023-04-03T16:24:04.113Z,54.64
2023-04-03T16:26:34.859Z,54.59
2023-04-03T16:29:05.401Z,54.64
2023-04-03T16:31:36.488Z,54.58
2023-04-03T16:34:06.946Z,54.45
2023-04-03T16:36:38.867Z,54.46
2023-04-03T16:39:11.094Z,54.53
2023-04-03T16:41:42.204Z,54.50
2023-04-03T16:44:13.276Z,54.63
2023-04-03T16:46:45.708Z,54.66
2023-04-03T16:49:17.030Z,54.58
2023-04-03T16:51:49.976Z,54.55
2023-04-03T16:54:21.482Z,54.61
2023-04-03T16:56:52.961Z,54.54
2023-04-03T16:59:27.993Z,54.57
2023-04-03T17:01:59.216Z,54.70
2023-04-03T17:04:33.376Z,54.60
2023-04-03T17:07:08.861Z,54.67
2023-04-03T17:09:43.944Z,54.74
2023-04-03T17:12:23.863Z,54.64
2023-04-03T17:14:55.052Z,54.60
2023-04-03T17:17:35.749Z,54.48
2023-04-03T17:20:07.456Z,54.50
2023-04-03T17:22:38.772Z,55.20
2023-04-03T17:25:10.552Z,54.55
2023-04-03T17:27:43.346Z,54.32
2023-04-03T17:30:21.555Z,54.18
2023-04-03T17:32:53.595Z,54.20
2023-04-03T17:35:28.509Z,54.14
2023-04-03T17:38:03.224Z,54.23
2023-04-03T17:40:34.939Z,54.19
2023-04-03T17:43:08.362Z,54.04
2023-04-03T17:45:39.903Z,54.14
2023-04-03T17:48:11.511Z,54.20
2023-04-03T17:50:44.737Z,54.07
2023-04-03T17:53:20.711Z,54.15
2023-04-03T17:56:00.078Z,54.21
2023-04-03T17:58:38.387Z,54.18
2023-04-03T18:01:21.600Z,54.15
2023-04-03T18:03:56.936Z,54.27
2023-04-03T18:06:34.717Z,54.30
2023-04-03T18:09:08.595Z,54.31
2023-04-03T18:11:41.073Z,54.30
2023-04-03T18:14:12.869Z,54.37
2023-04-03T18:16:45.370Z,54.33
2023-04-03T18:19:23.744Z,54.45
2023-04-03T18:21:59.381Z,54.38
2023-04-03T18:24:37.324Z,54.47
2023-04-03T18:27:17.462Z,54.87
2023-04-03T18:29:58.752Z,54.49
2023-04-03T18:32:31.082Z,54.42
2023-04-03T18:35:07.485Z,54.49
2023-04-03T18:37:44.558Z,54.47
2023-04-03T18:40:18.585Z,54.44
2023-04-03T18:42:54.001Z,54.44
2023-04-03T18:45:45.111Z,54.41
2023-04-03T18:48:26.071Z,54.45
2023-04-03T18:51:01.395Z,54.34
2023-04-03T18:53:36.863Z,54.29
2023-04-03T18:56:17.873Z,54.19
2023-04-03T18:58:57.480Z,54.13
2023-04-03T19:01:37.860Z,54.13
2023-04-03T19:04:10.813Z,54.13
2023-04-03T19:06:46.024Z,54.05
2023-04-03T19:09:27.157Z,54.05
2023-04-03T19:12:06.310Z,54.03
